Time;durP1;ratioP1;P1;durP2;ratioP2;P2;SDS_P1;SDS_P2;PMS_P1;PMS_P2;Temp;Humidity;BMP_temperature;BMP_pressure;BME280_temperature;BME280_humidity;BME280_pressure;Samples;Min_cycle;Max_cycle;Signal;HPM_P1;HPM_P2
2022/08/23 07:03:13;;;;;;;6.90;3.40;;;;;;;21.40;49.49;96601.69;2107564;27;20552;-66
2022/08/23 07:04:21;;;;;;;5.25;2.90;;;;;;;21.50;49.45;96610.53;2109328;28;20197;-66
2022/08/23 07:05:22;;;;;;;9.73;3.25;;;;;;;21.57;48.83;96616.16;2107586;28;20199;-68
2022/08/23 07:06:27;;;;;;;4.22;2.75;;;;;;;21.56;49.00;96617.13;2105505;27;20201;-66
2022/08/23 07:07:28;;;;;;;8.95;3.72;;;;;;;21.76;49.44;96610.84;2091835;28;20196;-67
2022/08/23 07:08:44;;;;;;;13.05;3.33;;;;;;;21.93;48.33;96616.44;2091849;28;20673;-66
2022/08/23 07:09:45;;;;;;;5.20;2.90;;;;;;;22.00;47.92;96614.91;2090516;28;20640;-67
2022/08/23 07:31:46;;;;;;;6.45;2.28;;;;;;;24.22;42.97;96627.53;2083766;28;20914;-66
2022/08/23 07:32:48;;;;;;;4.45;2.88;;;;;;;24.46;42.23;96634.88;2078596;28;20201;-66
2022/08/23 07:33:50;;;;;;;5.60;2.30;;;;;;;24.38;42.29;96639.31;2083447;28;20204;-66
2022/08/23 07:34:52;;;;;;;5.35;2.78;;;;;;;24.42;41.89;96628.16;2083582;28;20229;-66
2022/08/23 07:35:53;;;;;;;5.30;2.20;;;;;;;24.72;41.48;96628.75;2084336;28;20196;-66
2022/08/23 07:36:55;;;;;;;5.28;2.65;;;;;;;25.12;40.63;96630.94;2083154;28;20253;-66
2022/08/23 07:37:56;;;;;;;4.38;2.40;;;;;;;24.96;40.06;96629.03;2079588;28;20204;-67
2022/08/23 07:38:59;;;;;;;6.03;2.60;;;;;;;24.89;40.75;96635.00;2080655;28;20197;-67
2022/08/23 07:56:03;;;;;;;7.80;2.03;;;;;;;26.54;37.58;96647.97;2084543;28;20552;-66
2022/08/23 07:57:05;;;;;;;7.88;2.20;;;;;;;26.43;37.20;96650.97;2080551;28;20546;-66
2022/08/23 07:58:06;;;;;;;6.63;2.15;;;;;;;26.42;37.25;96646.63;2078002;28;20204;-66
2022/08/23 07:59:09;;;;;;;9.02;2.60;;;;;;;26.63;37.23;96654.16;2071173;28;20202;-67
2022/08/23 08:00:10;;;;;;;5.20;2.20;;;;;;;26.68;36.81;96649.13;2070940;28;20198;-66
2022/08/23 08:01:30;;;;;;;7.18;2.13;;;;;;;26.56;36.45;96654.81;2069534;28;20692;-66
2022/08/23 08:02:32;;;;;;;6.38;2.65;;;;;;;26.50;35.39;96649.28;2070927;28;20248;-66
2022/08/23 08:03:34;;;;;;;4.40;1.83;;;;;;;26.81;35.93;96652.13;2071176;28;20197;-66
2022/08/23 08:04:36;;;;;;;7.85;2.28;;;;;;;26.82;36.10;96652.97;2071139;28;20670;-67
2022/08/23 08:05:38;;;;;;;7.15;2.22;;;;;;;26.34;36.38;96650.97;2070702;28;20205;-67
2022/08/23 08:06:46;;;;;;;9.45;1.95;;;;;;;26.46;36.10;96654.16;2070741;28;20205;-67
2022/08/23 08:08:06;;;;;;;4.90;2.10;;;;;;;26.07;36.80;96649.47;2071117;28;20760;-67
2022/08/23 08:09:09;;;;;;;5.53;2.10;;;;;;;25.96;37.23;96652.44;2071165;28;20197;-66
2022/08/23 08:27:26;;;;;;;8.32;2.10;;;;;;;25.90;36.08;96659.25;2099426;27;20583;-66
2022/08/23 08:28:27;;;;;;;5.85;1.90;;;;;;;25.73;36.26;96653.06;2095595;28;20231;-66
2022/08/23 08:29:29;;;;;;;3.65;1.92;;;;;;;25.70;36.03;96654.22;2096046;28;20207;-66
2022/08/23 08:30:30;;;;;;;5.15;2.50;;;;;;;25.83;36.11;96659.09;2096005;28;20325;-67
2022/08/23 08:31:33;;;;;;;6.70;2.45;;;;;;;25.81;35.94;96661.09;2092511;28;20211;-67
2022/08/23 08:32:35;;;;;;;3.60;1.50;;;;;;;26.00;35.75;96657.28;2077210;28;20197;-66
2022/08/23 08:33:36;;;;;;;3.25;1.75;;;;;;;25.99;35.88;96636.91;2079506;28;20208;-66
2022/08/23 08:34:39;;;;;;;4.18;1.60;;;;;;;26.24;36.00;96659.19;2079540;28;20540;-67
2022/08/23 08:35:40;;;;;;;5.28;2.47;;;;;;;26.11;35.52;96658.81;2082572;28;20193;-67
2022/08/23 08:36:49;;;;;;;4.57;2.13;;;;;;;26.30;35.70;96662.19;2083868;28;20201;-66
2022/08/23 08:37:51;;;;;;;4.50;1.90;;;;;;;26.64;35.33;96663.81;2086961;28;20200;-67
2022/08/23 08:38:53;;;;;;;4.28;2.40;;;;;;;26.43;35.64;96664.38;2086547;28;20197;-67
2022/08/23 08:40:01;;;;;;;3.53;1.80;;;;;;;26.48;35.96;96664.69;2087654;28;20193;-67
2022/08/23 08:41:18;;;;;;;4.00;1.95;;;;;;;26.08;35.97;96668.03;2087601;28;20196;-67
2022/08/23 08:42:41;;;;;;;11.95;2.65;;;;;;;26.19;35.99;96666.84;2086441;28;20606;-67
2022/08/23 09:01:18;;;;;;;7.80;2.00;;;;;;;26.38;34.39;96673.72;2089968;28;21031;-66
2022/08/23 09:02:21;;;;;;;5.80;1.50;;;;;;;26.62;34.17;96673.88;2081812;28;20801;-66
2022/08/23 09:03:34;;;;;;;5.80;2.28;;;;;;;26.63;34.43;96670.22;2081176;28;20200;-66
2022/08/23 09:05:51;;;;;;;5.15;1.90;;;;;;;26.64;35.25;96678.06;2083424;22;20244;-60
2022/08/23 09:07:09;;;;;;;5.90;2.08;;;;;;;26.45;34.46;96662.34;2078223;28;20217;-60
2022/08/23 09:08:49;;;;;;;5.43;1.63;;;;;;;26.91;33.47;96669.88;2078254;28;20200;-60
2022/08/23 09:10:47;;;;;;;5.25;1.80;;;;;;;27.52;32.75;96671.00;2077087;28;20212;-60
2022/08/23 09:11:54;;;;;;;7.57;2.05;;;;;;;27.44;33.14;96679.09;2044323;28;20250;-61
2022/08/23 09:13:11;;;;;;;13.57;1.60;;;;;;;26.71;34.57;96675.53;2045191;29;20204;-60
2022/08/23 09:14:24;;;;;;;6.47;1.90;;;;;;;26.65;33.68;96677.06;2043923;29;20756;-62
2022/08/23 09:16:03;;;;;;;7.53;2.00;;;;;;;26.08;34.36;96668.03;2045182;29;20200;-60
2022/08/23 09:17:26;;;;;;;3.22;1.73;;;;;;;26.23;34.76;96678.06;2043891;28;20286;-60
2022/08/23 09:18:33;;;;;;;7.97;1.95;;;;;;;26.70;34.37;96673.88;2044720;29;20214;-60
2022/08/23 09:35:42;;;;;;;4.28;2.15;;;;;;;27.97;32.00;96671.28;2092676;27;20856;-60
2022/08/23 09:36:44;;;;;;;10.60;1.98;;;;;;;28.82;31.76;96677.53;2080416;28;20224;-59
2022/08/23 09:38:00;;;;;;;4.28;1.65;;;;;;;29.35;30.54;96676.63;2076262;28;20224;-60
2022/08/23 09:39:30;;;;;;;2.08;1.25;;;;;;;29.81;29.92;96676.38;2075908;28;20224;-67
2022/08/23 09:40:35;;;;;;;3.13;1.70;;;;;;;27.91;31.67;96671.97;2075972;28;20228;-67
2022/08/23 09:41:42;;;;;;;3.67;1.70;;;;;;;27.79;31.78;96671.53;2074683;28;20591;-66
2022/08/23 09:42:46;;;;;;;5.70;2.10;;;;;;;28.50;31.04;96682.13;2076099;28;20212;-67
2022/08/23 09:43:47;;;;;;;2.90;1.20;;;;;;;29.04;29.92;96677.63;2076060;28;20204;-67
2022/08/23 09:44:49;;;;;;;3.38;1.48;;;;;;;29.73;29.17;96668.41;2076151;28;20247;-67
2022/08/23 09:45:50;;;;;;;3.80;1.67;;;;;;;30.10;28.03;96669.25;2076473;28;20197;-67
2022/08/23 09:48:33;;;;;;;5.22;1.73;;;;;;;30.54;28.60;96670.13;2082592;28;20516;-60
2022/08/23 09:49:35;;;;;;;8.88;1.80;;;;;;;30.99;28.06;96671.69;2108545;22;20745;-66
2022/08/23 09:50:42;;;;;;;6.97;1.50;;;;;;;31.17;27.29;96672.03;2082989;28;20223;-66
2022/08/23 09:51:43;;;;;;;7.63;1.70;;;;;;;31.16;27.74;96658.75;2103575;23;22092;-69
2022/08/23 09:52:49;;;;;;;4.27;1.80;;;;;;;30.99;26.97;96656.34;2070491;28;20229;-66
2022/08/23 09:54:03;;;;;;;5.25;1.50;;;;;;;30.94;27.96;96664.19;2070796;28;20477;-66
2022/08/23 09:55:23;;;;;;;7.40;2.20;;;;;;;31.20;28.01;96668.94;2069899;28;20256;-66
2022/08/23 09:56:26;;;;;;;3.97;1.67;;;;;;;31.13;27.91;96673.47;2070146;28;20202;-65
2022/08/23 09:57:30;;;;;;;5.93;1.93;;;;;;;31.59;28.11;96662.06;2070691;28;20675;-66
2022/08/23 09:58:37;;;;;;;4.10;1.40;;;;;;;31.75;27.69;96669.00;2069600;28;20424;-66
2022/08/23 09:59:45;;;;;;;4.17;1.57;;;;;;;32.07;27.53;96674.72;2070215;28;20432;-66
2022/08/23 10:01:06;;;;;;;6.20;1.57;;;;;;;32.39;27.57;96677.72;2070571;28;20828;-66
2022/08/23 10:02:16;;;;;;;4.57;1.70;;;;;;;30.38;28.27;96671.19;2068750;28;20467;-66
2022/08/23 10:03:26;;;;;;;5.60;1.90;;;;;;;29.53;29.00;96670.03;2070504;28;20434;-66
2022/08/23 10:21:35;;;;;;;5.18;1.90;;;;;;;29.84;28.91;96664.41;2100982;27;20576;-63
2022/08/23 10:23:24;;;;;;;4.28;1.95;;;;;;;29.96;28.70;96673.66;2084952;28;20650;-64
2022/08/23 10:24:43;;;;;;;4.65;2.00;;;;;;;29.05;29.85;96665.03;2053054;28;20202;-64
2022/08/23 10:25:49;;;;;;;3.08;1.40;;;;;;;30.20;28.55;96665.44;2086533;28;20203;-64
2022/08/23 10:29:36;;;;;;;5.03;1.60;;;;;;;31.16;27.33;96666.84;2085116;28;20220;-64
2022/08/23 10:30:22;;;;;;;4.10;1.60;;;;;;;30.67;27.65;96661.31;2078875;28;20208;-65
2022/08/23 10:31:46;;;;;;;3.55;1.80;;;;;;;31.83;26.84;96667.16;2078654;28;20427;-63
2022/08/23 10:32:56;;;;;;;3.50;1.43;;;;;;;32.11;25.86;96667.03;2077770;28;20197;-65
2022/08/23 10:34:23;;;;;;;3.43;1.70;;;;;;;31.75;26.53;96666.31;2078855;28;20818;-65
2022/08/23 10:35:47;;;;;;;4.50;1.47;;;;;;;32.21;25.71;96672.91;2078568;28;20928;-64
2022/08/23 10:36:54;;;;;;;2.27;1.20;;;;;;;29.72;27.80;96661.38;2076904;28;20451;-64
2022/08/23 10:38:11;;;;;;;5.70;1.80;;;;;;;29.71;28.33;96662.41;2078258;28;20442;-64
2022/08/23 10:39:25;;;;;;;8.07;1.93;;;;;;;30.55;27.51;96655.63;2078211;28;20426;-64
2022/08/23 10:40:51;;;;;;;15.73;1.50;;;;;;;31.33;27.12;96659.28;2078086;28;20452;-65
2022/08/23 10:42:06;;;;;;;10.23;1.63;;;;;;;31.18;26.53;96659.38;2076956;28;20562;-64
2022/08/23 10:43:19;;;;;;;11.50;1.70;;;;;;;30.06;27.99;96656.38;2077589;28;20429;-64
2022/08/23 10:44:24;;;;;;;2.90;1.40;;;;;;;30.73;27.52;96657.81;2078539;28;20438;-64
2022/08/23 10:45:35;;;;;;;6.10;1.53;;;;;;;31.71;26.64;96656.97;2078357;28;20430;-64
2022/08/23 10:46:45;;;;;;;7.03;1.73;;;;;;;32.02;26.18;96652.91;2078111;28;20446;-64
2022/08/23 10:48:14;;;;;;;3.00;1.40;;;;;;;30.70;27.18;96658.22;2085888;28;20579;-64
2022/08/23 10:49:16;;;;;;;15.47;2.33;;;;;;;29.43;28.44;96652.34;2082718;28;20909;-64
2022/08/23 10:50:19;;;;;;;4.87;1.80;;;;;;;28.39;29.29;96647.69;2078688;28;20442;-65
2022/08/23 10:51:27;;;;;;;6.50;2.07;;;;;;;29.46;28.43;96645.75;2078386;28;20453;-65
2022/08/23 10:52:39;;;;;;;5.13;1.80;;;;;;;30.05;27.76;96646.63;2078184;28;20446;-63
2022/08/23 10:53:55;;;;;;;4.50;1.50;;;;;;;30.41;27.48;96643.88;2078153;28;20426;-63
2022/08/23 10:55:15;;;;;;;6.93;1.80;;;;;;;30.55;27.73;96649.38;2078719;28;21084;-63
2022/08/23 10:56:19;;;;;;;3.85;1.95;;;;;;;29.96;28.37;96648.63;2077987;28;20499;-63
2022/08/23 10:57:23;;;;;;;6.80;2.00;;;;;;;30.08;28.22;96643.56;2077764;28;20587;-64
2022/08/23 10:58:27;;;;;;;2.45;1.35;;;;;;;30.49;27.98;96648.31;2078195;28;20201;-63
2022/08/23 10:59:33;;;;;;;7.03;1.60;;;;;;;31.12;27.54;96631.34;2086133;28;20200;-64
2022/08/23 11:00:36;;;;;;;3.65;1.60;;;;;;;31.02;28.00;96644.31;2085292;28;20261;-63
2022/08/23 11:01:58;;;;;;;3.53;1.50;;;;;;;32.22;26.92;96641.31;2077731;28;20655;-63
2022/08/23 11:03:18;;;;;;;10.40;1.90;;;;;;;33.23;25.80;96639.41;2078316;28;20861;-64
2022/08/23 11:04:24;;;;;;;3.93;1.70;;;;;;;33.84;25.13;96629.19;2078684;28;20426;-63
2022/08/23 11:05:32;;;;;;;5.53;1.83;;;;;;;34.24;24.47;96638.94;2078619;28;20422;-64
2022/08/23 11:06:33;;;;;;;4.87;1.90;;;;;;;34.64;24.11;96633.22;2077715;28;21143;-63
2022/08/23 11:07:40;;;;;;;4.43;1.67;;;;;;;34.46;24.00;96634.84;2077727;28;20831;-64
2022/08/23 11:08:45;;;;;;;4.17;1.53;;;;;;;34.91;24.03;96631.13;2077873;28;20761;-64
2022/08/23 11:10:06;;;;;;;6.40;2.10;;;;;;;34.50;23.85;96627.09;2077737;28;20809;-64
2022/08/23 11:11:42;;;;;;;4.57;1.73;;;;;;;34.53;24.08;96640.19;2078593;28;20488;-64
2022/08/23 11:12:56;;;;;;;12.57;1.70;;;;;;;35.04;23.72;96632.88;2077806;28;20442;-64
2022/08/23 11:13:58;;;;;;;5.13;1.87;;;;;;;35.62;23.15;96634.31;2078533;28;20422;-64
2022/08/23 11:15:05;;;;;;;4.07;1.77;;;;;;;36.05;23.44;96632.50;2078323;28;20426;-65
2022/08/23 11:33:16;;;;;;;22.47;9.73;;;;;;;32.75;26.09;96616.19;2085134;28;20605;-59
2022/08/23 11:34:23;;;;;;;6.83;3.57;;;;;;;32.82;26.24;96613.47;2072850;28;21031;-58
2022/08/23 11:35:37;;;;;;;7.27;1.80;;;;;;;31.22;27.56;96612.97;2075190;28;20520;-58
2022/08/23 11:37:18;;;;;;;7.10;2.03;;;;;;;29.82;29.41;96618.00;2072052;28;22060;-58
2022/08/23 11:38:42;;;;;;;7.53;1.90;;;;;;;30.64;28.86;96620.44;2069068;28;20443;-59
2022/08/23 11:39:58;;;;;;;11.77;2.07;;;;;;;32.72;26.89;96621.97;2069603;28;20423;-62
2022/08/23 11:41:12;;;;;;;11.17;1.70;;;;;;;33.85;26.37;96614.59;2067186;28;20478;-59
2022/08/23 11:42:18;;;;;;;28.57;18.50;;;;;;;34.50;25.18;96616.25;2066465;28;20470;-59
2022/08/23 11:43:33;;;;;;;57.67;32.50;;;;;;;34.18;24.20;96622.50;2066192;28;20546;-59
2022/08/23 11:44:39;;;;;;;13.40;2.10;;;;;;;32.92;25.65;96613.06;2066738;28;20439;-60
2022/08/23 11:45:46;;;;;;;5.90;2.07;;;;;;;30.99;27.58;96623.16;2067825;28;20432;-59
2022/08/23 11:46:54;;;;;;;5.90;2.70;;;;;;;31.70;26.94;96628.31;2067437;28;20548;-60
2022/08/23 11:48:35;;;;;;;2.73;1.57;;;;;;;29.66;28.89;96624.44;2068879;28;20789;-59
2022/08/23 11:49:58;;;;;;;7.53;1.80;;;;;;;29.60;28.75;96620.69;2069576;28;20428;-64
2022/08/23 11:51:23;;;;;;;8.27;1.90;;;;;;;30.07;28.49;96615.81;2068395;28;20939;-64
2022/08/23 11:53:16;;;;;;;3.10;1.70;;;;;;;30.51;28.10;96616.63;2067313;28;20454;-65
2022/08/23 11:54:27;;;;;;;5.93;1.88;;;;;;;30.64;27.59;96626.69;2066035;28;20443;-64
2022/08/23 11:55:57;;;;;;;5.53;1.77;;;;;;;31.98;26.80;96626.50;2067458;28;20194;-65
2022/08/23 11:57:16;;;;;;;3.47;1.37;;;;;;;33.07;24.92;96618.22;2066901;28;21041;-64
2022/08/23 11:58:25;;;;;;;3.07;1.60;;;;;;;31.89;26.54;96625.88;2065470;28;20424;-65
2022/08/23 11:59:30;;;;;;;6.57;2.10;;;;;;;30.86;27.76;96619.34;2068773;28;20671;-64
2022/08/23 12:01:06;;;;;;;3.70;1.70;;;;;;;32.94;26.33;96622.63;2067981;28;20435;-64
2022/08/23 12:02:46;;;;;;;3.87;1.63;;;;;;;34.48;24.40;96619.16;2066750;28;20468;-64
2022/08/23 12:04:13;;;;;;;7.17;1.70;;;;;;;34.88;23.25;96623.44;2067117;28;20513;-65
2022/08/23 12:05:19;;;;;;;10.43;1.63;;;;;;;31.24;26.69;96616.28;2066639;28;20434;-65
2022/08/23 12:06:24;;;;;;;5.77;2.10;;;;;;;31.85;26.23;96613.81;2065684;28;20453;-65
2022/08/23 12:08:02;;;;;;;3.27;1.20;;;;;;;32.65;25.75;96613.06;2065496;28;20472;-65
2022/08/23 12:09:11;;;;;;;6.90;1.87;;;;;;;34.14;24.55;96604.19;2052889;28;20433;-67
2022/08/23 12:10:20;;;;;;;6.40;1.63;;;;;;;35.09;23.32;96605.06;2053042;28;20436;-67
2022/08/23 12:11:24;;;;;;;3.73;1.30;;;;;;;35.41;23.25;96608.47;2058125;28;20444;-67
2022/08/23 12:12:29;;;;;;;3.93;1.50;;;;;;;34.54;23.47;96605.78;2067278;28;20987;-67
2022/08/23 12:13:53;;;;;;;2.37;1.63;;;;;;;33.58;24.63;96603.06;2066711;28;20473;-65
2022/08/23 12:15:01;;;;;;;6.60;1.67;;;;;;;33.18;25.00;96604.03;2069133;28;20427;-67
2022/08/23 12:16:18;;;;;;;4.17;1.70;;;;;;;32.36;25.75;96612.44;2066901;28;20853;-68
2022/08/23 12:17:24;;;;;;;6.80;1.73;;;;;;;33.11;24.90;96612.16;2068030;28;20455;-66
2022/08/23 12:18:26;;;;;;;4.80;1.30;;;;;;;33.09;24.76;96605.31;2069371;28;20481;-66
2022/08/23 12:19:36;;;;;;;3.77;1.60;;;;;;;33.02;25.15;96603.44;2068329;28;20432;-66
2022/08/23 12:20:42;;;;;;;3.40;1.20;;;;;;;32.15;25.81;96599.94;2068462;28;20519;-66
2022/08/23 12:21:51;;;;;;;9.23;1.97;;;;;;;33.65;24.38;96609.25;2067320;28;20505;-66
2022/08/23 12:22:58;;;;;;;7.33;1.80;;;;;;;33.45;24.54;96604.78;2068539;28;20419;-66
2022/08/23 12:24:13;;;;;;;4.27;1.73;;;;;;;33.36;24.44;96595.25;2066815;28;20438;-65
2022/08/23 12:25:18;;;;;;;4.17;1.63;;;;;;;32.86;24.38;96595.78;2073143;28;20435;-65
2022/08/23 12:26:23;;;;;;;4.23;1.50;;;;;;;33.35;25.87;96610.66;2072964;28;20427;-65
2022/08/23 12:27:51;;;;;;;35.40;25.77;;;;;;;35.33;23.36;96607.94;2067537;28;20439;-61
2022/08/23 12:29:08;;;;;;;8.33;5.90;;;;;;;35.95;23.03;96610.50;2066350;28;20471;-60
2022/08/23 12:30:19;;;;;;;3.30;1.60;;;;;;;33.53;23.75;96609.97;2068022;28;20435;-60
2022/08/23 12:31:48;;;;;;;3.90;1.80;;;;;;;34.97;23.66;96605.81;2067338;28;20649;-61
2022/08/23 12:33:12;;;;;;;3.87;1.20;;;;;;;35.87;22.33;96605.38;2066963;28;20464;-61
2022/08/23 12:34:25;;;;;;;6.57;1.60;;;;;;;36.07;22.29;96603.19;2065700;28;20431;-61
2022/08/23 12:35:39;;;;;;;9.30;1.93;;;;;;;36.20;22.26;96583.16;2065937;28;20459;-62
2022/08/23 12:36:53;;;;;;;3.57;1.60;;;;;;;33.52;23.84;96597.47;2066513;28;20438;-61
2022/08/23 12:38:18;;;;;;;5.73;1.70;;;;;;;31.92;25.79;96606.56;2067041;28;20427;-62
2022/08/23 12:39:35;;;;;;;3.90;1.47;;;;;;;31.84;25.92;96609.47;2069156;28;20934;-62
2022/08/23 12:40:51;;;;;;;5.20;1.50;;;;;;;32.66;24.96;96603.91;2069041;28;20431;-62
2022/08/23 12:42:14;;;;;;;2.63;1.30;;;;;;;32.10;25.34;96591.63;2068926;28;20941;-61
2022/08/23 12:43:25;;;;;;;7.30;1.60;;;;;;;32.47;25.29;96601.03;2069806;28;20427;-62
2022/08/23 12:44:28;;;;;;;5.47;1.57;;;;;;;32.12;25.68;96600.38;2064247;28;20926;-62
2022/08/23 12:45:38;;;;;;;5.90;1.53;;;;;;;31.90;25.51;96603.25;2062133;28;20424;-61
2022/08/23 12:46:43;;;;;;;5.37;1.73;;;;;;;31.33;26.12;96610.72;2062841;28;20432;-61
2022/08/23 12:47:55;;;;;;;4.80;1.50;;;;;;;32.99;25.13;96603.88;2062915;28;20436;-62
2022/08/23 12:48:58;;;;;;;7.20;2.00;;;;;;;34.19;23.65;96607.09;2060940;28;20428;-61
2022/08/23 12:50:14;;;;;;;5.23;1.63;;;;;;;35.13;22.86;96609.78;2060816;28;20504;-62
2022/08/23 12:51:15;;;;;;;4.27;1.50;;;;;;;33.85;23.37;96593.78;2062131;28;20444;-62
2022/08/23 12:52:27;;;;;;;5.90;1.60;;;;;;;32.44;24.80;96600.59;2063389;28;20460;-62
2022/08/23 12:53:32;;;;;;;2.70;1.70;;;;;;;33.18;24.60;96604.03;2063396;28;20471;-61
2022/08/23 12:54:41;;;;;;;3.90;1.47;;;;;;;32.93;24.32;96601.19;2061699;28;20475;-62
2022/08/23 12:55:47;;;;;;;5.23;1.60;;;;;;;32.60;24.35;96596.66;2061407;28;20462;-62
2022/08/23 12:56:52;;;;;;;4.87;1.60;;;;;;;33.74;24.30;96602.56;2062027;28;20444;-62
2022/08/23 12:57:55;;;;;;;4.17;1.43;;;;;;;32.81;23.93;96595.59;2061759;28;20436;-62
2022/08/23 12:59:03;;;;;;;10.27;1.80;;;;;;;31.66;25.51;96600.06;2062799;28;20439;-61
2022/08/23 13:00:26;;;;;;;4.80;1.60;;;;;;;31.45;25.47;96595.59;2060965;28;20444;-62
2022/08/23 13:01:36;;;;;;;8.73;1.57;;;;;;;31.90;25.17;96589.75;2063076;28;20438;-62
2022/08/23 13:02:38;;;;;;;5.40;1.60;;;;;;;33.18;24.33;96585.94;2063089;28;20432;-59
2022/08/23 13:03:44;;;;;;;2.70;1.23;;;;;;;34.66;23.45;96591.31;2062300;28;20490;-59
2022/08/23 13:04:45;;;;;;;3.63;1.50;;;;;;;34.94;22.84;96565.56;2061854;28;20924;-60
2022/08/23 13:05:54;;;;;;;8.10;1.93;;;;;;;35.15;22.42;96590.59;2062967;28;20424;-59
2022/08/23 13:07:00;;;;;;;6.80;1.63;;;;;;;35.42;22.92;96593.03;2060464;28;20465;-60
2022/08/23 13:08:06;;;;;;;3.10;1.50;;;;;;;34.72;23.00;96592.28;2062955;28;20423;-59
2022/08/23 13:09:17;;;;;;;2.60;1.10;;;;;;;34.09;23.70;96580.47;2064097;28;20423;-59
2022/08/23 13:24:36;;;;;;;6.07;1.73;;;;;;;34.45;23.75;96583.56;2085575;28;20567;-58
2022/08/23 13:25:41;;;;;;;7.70;1.90;;;;;;;35.22;22.88;96591.34;2076501;28;20480;-61
2022/08/23 13:26:45;;;;;;;4.03;1.40;;;;;;;35.75;22.40;96595.28;2075289;28;20433;-61
2022/08/23 13:27:47;;;;;;;2.30;1.10;;;;;;;35.08;22.09;96592.56;2070253;28;20992;-61
2022/08/23 13:29:08;;;;;;;4.03;2.00;;;;;;;33.87;23.34;96587.31;2066799;28;20536;-61
2022/08/23 13:30:10;;;;;;;2.20;1.37;;;;;;;33.88;23.26;96583.53;2068026;28;20443;-61
2022/08/23 13:31:11;;;;;;;3.00;1.40;;;;;;;34.67;22.90;96587.50;2067347;28;20424;-61
2022/08/23 13:32:34;;;;;;;3.10;1.80;;;;;;;33.80;23.13;96581.91;2067085;28;20464;-61
2022/08/23 13:33:36;;;;;;;3.40;1.43;;;;;;;32.09;24.43;96582.72;2069547;28;20435;-61
2022/08/23 13:34:45;;;;;;;3.10;1.40;;;;;;;31.03;25.97;96584.84;2069990;28;20529;-61
2022/08/23 13:35:52;;;;;;;5.37;1.40;;;;;;;32.60;24.91;96586.66;2068194;28;20439;-62
2022/08/23 13:36:57;;;;;;;2.93;1.27;;;;;;;33.51;23.43;96582.28;2068656;28;20463;-61
2022/08/23 13:38:07;;;;;;;2.70;1.23;;;;;;;33.86;23.48;96589.19;2068804;28;20428;-60
2022/08/23 13:39:09;;;;;;;5.30;1.70;;;;;;;33.55;23.12;96577.28;2066042;28;20424;-60
2022/08/23 13:40:21;;;;;;;4.83;1.43;;;;;;;34.55;23.18;96585.75;2068538;28;20420;-60
2022/08/23 13:41:34;;;;;;;3.90;1.27;;;;;;;35.57;21.73;96588.00;2068890;28;20797;-63
2022/08/23 13:42:51;;;;;;;10.03;1.53;;;;;;;34.94;22.17;96584.56;2068695;28;20434;-64
2022/08/23 13:43:53;;;;;;;5.63;2.07;;;;;;;34.97;22.09;96573.28;2068010;28;20451;-64
2022/08/23 13:44:55;;;;;;;6.33;2.10;;;;;;;33.98;22.81;96582.03;2068851;28;20445;-64
2022/08/23 13:46:08;;;;;;;3.27;1.57;;;;;;;32.63;24.36;96577.31;2069892;28;20963;-64
2022/08/23 13:47:21;;;;;;;5.43;1.97;;;;;;;32.33;24.61;96580.44;2066204;28;20458;-63
2022/08/23 13:48:27;;;;;;;3.73;1.43;;;;;;;30.11;26.83;96581.28;2069900;28;20830;-63
2022/08/23 13:49:35;;;;;;;2.67;1.40;;;;;;;29.75;27.65;96579.44;2067190;28;20837;-63
2022/08/23 13:50:37;;;;;;;5.00;1.93;;;;;;;30.79;25.98;96586.13;2066675;28;20435;-63
2022/08/23 13:52:02;;;;;;;6.10;1.63;;;;;;;32.44;25.12;96585.22;2064170;28;20771;-63
2022/08/23 13:53:24;;;;;;;4.60;1.50;;;;;;;33.25;24.14;96587.78;2068347;28;20435;-63
2022/08/23 13:54:28;;;;;;;3.67;1.63;;;;;;;33.32;23.46;96575.91;2069205;28;20435;-64
2022/08/23 13:55:30;;;;;;;3.00;1.70;;;;;;;34.24;23.28;96579.34;2069187;28;20770;-64
2022/08/23 13:56:38;;;;;;;5.27;2.17;;;;;;;34.78;22.80;96585.97;2067646;28;20435;-64
2022/08/23 13:57:41;;;;;;;5.70;1.70;;;;;;;35.30;21.89;96580.19;2067057;28;20439;-64
2022/08/23 13:58:56;;;;;;;3.53;1.10;;;;;;;36.02;21.51;96578.63;2067984;28;20481;-64
2022/08/23 13:59:57;;;;;;;9.03;3.50;;;;;;;36.38;21.83;96573.28;2068569;28;20434;-64
2022/08/23 14:01:02;;;;;;;3.43;1.87;;;;;;;36.27;21.52;96577.63;2068651;28;20778;-64
2022/08/23 14:02:10;;;;;;;7.37;4.50;;;;;;;36.34;20.93;96577.50;2068190;28;20470;-64
2022/08/23 14:03:11;;;;;;;5.37;2.33;;;;;;;36.63;21.09;96577.66;2068728;28;21225;-64
2022/08/23 14:04:13;;;;;;;8.30;1.30;;;;;;;35.22;22.11;96576.94;2066980;28;20459;-64
2022/08/23 14:05:21;;;;;;;4.63;1.40;;;;;;;36.15;21.46;96585.75;2066216;28;20432;-64
2022/08/23 14:06:24;;;;;;;4.80;1.30;;;;;;;36.65;20.84;96587.25;2067279;28;20415;-64
2022/08/23 14:07:26;;;;;;;1.97;1.17;;;;;;;36.71;20.66;96583.56;2068880;28;20934;-64
2022/08/23 14:08:28;;;;;;;4.50;1.43;;;;;;;36.34;21.61;96575.63;2068436;28;20934;-64
2022/08/23 14:09:29;;;;;;;4.60;1.30;;;;;;;36.18;21.71;96573.59;2067442;28;20432;-64
2022/08/23 14:10:32;;;;;;;3.87;1.50;;;;;;;35.61;21.72;96569.38;2066622;28;20447;-64
2022/08/23 14:11:34;;;;;;;3.20;1.47;;;;;;;35.83;21.69;96569.69;2066679;28;20473;-64
2022/08/23 14:12:35;;;;;;;3.33;1.43;;;;;;;35.88;21.71;96575.28;2074572;28;20427;-64
2022/08/23 14:13:37;;;;;;;3.53;1.17;;;;;;;36.08;21.30;96582.31;2074821;28;20427;-64
2022/08/23 14:14:39;;;;;;;5.50;1.40;;;;;;;35.88;21.42;96578.00;2068073;28;20431;-64
2022/08/23 14:15:43;;;;;;;13.50;1.93;;;;;;;35.42;22.19;96574.03;2067660;28;20427;-64
2022/08/23 14:17:05;;;;;;;8.73;1.27;;;;;;;34.88;22.42;96569.22;2066950;28;21195;-64
2022/08/23 14:18:11;;;;;;;4.60;1.40;;;;;;;34.16;22.97;96577.75;2067096;28;21058;-64
2022/08/23 14:19:13;;;;;;;4.23;1.40;;;;;;;33.88;23.41;96581.69;2067166;28;20428;-65
2022/08/23 14:20:34;;;;;;;3.57;1.30;;;;;;;33.67;23.59;96583.66;2069921;28;20439;-65
2022/08/23 14:21:52;;;;;;;2.17;1.50;;;;;;;33.51;23.85;96576.06;2068667;28;20456;-64
2022/08/23 14:22:54;;;;;;;1.47;1.20;;;;;;;33.75;23.73;96574.44;2069409;28;20475;-65
2022/08/23 14:23:55;;;;;;;4.10;1.70;;;;;;;34.27;23.08;96577.03;2068761;28;20467;-64
2022/08/23 14:24:57;;;;;;;2.57;1.23;;;;;;;34.72;22.46;96573.31;2067211;28;20475;-64
2022/08/23 14:25:58;;;;;;;3.30;1.33;;;;;;;34.59;22.08;96571.56;2066078;28;20435;-65
2022/08/23 14:27:00;;;;;;;4.77;1.23;;;;;;;34.77;22.33;96572.63;2068655;28;21162;-64
2022/08/23 14:28:02;;;;;;;3.67;1.70;;;;;;;35.26;21.92;96580.88;2069737;28;20438;-64
2022/08/23 14:29:04;;;;;;;5.57;1.33;;;;;;;35.74;21.26;96566.47;2068517;28;20477;-64
2022/08/23 14:30:08;;;;;;;2.30;1.23;;;;;;;36.05;21.34;96580.03;2066319;28;20442;-65
2022/08/23 14:31:10;;;;;;;8.53;1.33;;;;;;;35.71;21.77;96577.81;2066202;28;20832;-65
2022/08/23 14:32:11;;;;;;;2.40;1.37;;;;;;;36.22;21.10;96581.03;2064944;28;20512;-65
2022/08/23 14:33:13;;;;;;;5.67;1.47;;;;;;;35.72;21.68;96571.31;2067581;28;20428;-65
2022/08/23 14:34:14;;;;;;;3.73;1.30;;;;;;;34.63;21.35;96572.75;2066580;28;20915;-65
2022/08/23 14:35:16;;;;;;;4.60;1.30;;;;;;;35.17;21.87;96576.81;2066324;28;20822;-66
2022/08/23 14:36:17;;;;;;;4.70;1.60;;;;;;;35.32;21.62;96574.53;2064336;28;20439;-65
2022/08/23 14:37:21;;;;;;;4.97;1.80;;;;;;;35.85;21.21;96567.56;2063029;28;20464;-65
2022/08/23 14:38:42;;;;;;;4.27;1.43;;;;;;;35.74;20.99;96577.31;2061857;28;20432;-65
2022/08/23 14:39:45;;;;;;;8.40;1.43;;;;;;;34.98;21.80;96568.66;2062661;28;20902;-65
2022/08/23 14:40:52;;;;;;;5.60;1.17;;;;;;;35.86;21.27;96574.69;2062103;28;20460;-64
2022/08/23 14:41:54;;;;;;;8.13;1.70;;;;;;;36.16;20.83;96570.28;2061280;28;20841;-64
2022/08/23 14:42:55;;;;;;;3.73;1.10;;;;;;;34.08;22.18;96559.88;2062835;28;20478;-65
2022/08/23 14:43:57;;;;;;;5.73;1.67;;;;;;;34.42;22.51;96571.28;2062621;28;20595;-65
2022/08/23 14:44:59;;;;;;;2.33;1.20;;;;;;;35.21;21.87;96568.00;2063564;28;20438;-65
2022/08/23 14:46:01;;;;;;;2.73;1.40;;;;;;;35.74;21.15;96571.09;2059879;28;20433;-65
2022/08/23 14:47:04;;;;;;;2.97;1.40;;;;;;;35.19;21.32;96561.97;2059186;28;20523;-65
2022/08/23 14:48:06;;;;;;;2.77;1.40;;;;;;;35.76;21.37;96563.53;2061524;28;20436;-65
2022/08/23 14:49:07;;;;;;;2.60;1.30;;;;;;;36.15;20.82;96563.19;2063397;28;20946;-65
2022/08/23 14:50:12;;;;;;;12.40;1.20;;;;;;;36.07;20.79;96576.03;2062779;28;20440;-64
2022/08/23 14:51:22;;;;;;;2.20;1.40;;;;;;;36.05;20.67;96577.31;2063505;28;20966;-65